Tiempo atmosférico en la estación meteorológica de Banyalbufar, Illes Balears (60 m.)



Fecha
DESCASC
Temp. máxima en grados centígrados (hora)
DESCASC
Temp. mínima en grados centígrados (hora)
DESCASC
Temp. media en grados centígrados
DESCASC
Racha de viento máxima en m/sg (hora)
DESCASC
Velocidad máxima media en intervalos de 10 minutos(hora)
DESCASC
Precipitaciones diarias en mm
DESCASC
Precipitaciones de 00:00 a 06:00 en mm
DESCASC
Precipitaciones de 06:00 a 12:00 en mm
DESCASC
Precipitaciones de 12:00 a 18:00 en mm
DESCASC
Precipitaciones de 18:00 a 24:00 en mm
DESCASC
25-02-2021 15.1 (10:30) 9.7 (06:00) 12.4 5.28 (16:30) 3.61 (16:20) 0 0 0 0 0
24-02-2021 14.6 (10:20) 10.6 (23:59) 12.6 9.44 (10:20) 4.17 (10:20) 0 0 0 0 0
23-02-2021 14.7 (11:10) 9.7 (03:00) 12.2 4.44 (14:30) 3.06 (14:30) 0 0 0 0 0
22-02-2021 20.3 (00:20) 10.3 (23:00) 15.3 17.5 (02:20) 8.61 (02:00) 16.8 0 2.8 14 0
21-02-2021 20.3 (23:20) 15 (00:00) 17.6 21.67 (11:20) 12.22 (11:10) 0 0 0 0 0
20-02-2021 17.4 (22:10) 8.5 (00:00) 12.9 16.67 (23:50) 10 (23:10) 0 0 0 0 0
19-02-2021 13.8 (17:40) 8.5 (00:00) 11.2 4.44 (13:30) 3.06 (07:00) 0 0 0 0 0
18-02-2021 15.2 (17:10) 8 (00:00) 11.6 5 (11:30) 3.06 (07:50) 0 0 0 0 0
17-02-2021 14.6 (15:40) 8.7 (00:00) 11.7 5.28 (01:10) 3.06 (01:10) 0 0 0 0 0
16-02-2021 15.7 (16:10) 8.2 (00:00) 11.9 8.61 (09:20) 3.89 (09:50) 0 0 0 0 0
15-02-2021 13.3 (15:10) 9.7 (00:00) 11.5 7.22 (17:50) 4.44 (18:00) 0 0 0 0 0
14-02-2021 13.2 (13:10) 9.7 (00:00) 11.4 12.5 (12:30) 6.11 (14:00) 0 0 0 0 0
13-02-2021 15.7 (16:10) 10.6 (00:00) 13.2 6.39 (02:50) 3.61 (03:10) 0 0 0 0 0
12-02-2021 19.2 (09:00) 13.4 (00:00) 16.3 12.5 (13:20) 5.83 (13:40) 1.4 0 0 0.2 1.2
11-02-2021 16.6 (17:00) 10.7 (00:00) 13.7 8.61 (15:50) 5.83 (15:50) 0 0 0 0 0
10-02-2021 16.8 (03:30) 11.5 (00:00) 14.1 22.78 (04:00) 9.44 (04:50) 0 0 0 0 0
09-02-2021 18.2 (22:20) 12.8 (00:00) 15.5 20 (23:10) 9.17 (23:10) 0 0 0 0 0
08-02-2021 15.9 (11:00) 12 (00:00) 13.9 20.56 (10:40) 8.89 (11:50) 0.4 0 0 0.4 0
07-02-2021 14.3 (01:00) 8.4 (00:00) 11.3 7.5 (11:50) 5.28 (11:40) 0 0 0 0 0
06-02-2021 24.1 (01:30) 12.9 (00:00) 18.5 23.61 (06:00) 10.56 (04:20) 0 0 0 0 0
05-02-2021 23.4 (15:00) 10.4 (00:00) 16.9 18.89 (22:30) 10 (20:50) 0 0 0 0 0
04-02-2021 14.7 (15:30) 11.1 (00:00) 12.9 5.56 (14:30) 3.06 (14:20) 0 0 0 0 0
03-02-2021 18.3 (00:20) 13.7 (00:00) 16 12.78 (10:50) 6.94 (11:20) 0 0 0 0 0
02-02-2021 18.7 (22:40) 13.6 (00:00) 16.2 8.61 (13:40) 6.11 (13:30) 0 0 0 0 0
01-02-2021 18.7 (21:20) 15.3 (00:00) 17 19.17 (00:40) 10.28 (00:40) 0 0 0 0 0
31-01-2021 15.8 (15:40) 13.2 (00:00) 14.5 17.22 (21:40) 11.11 (22:00) 0 0 0 0 0
30-01-2021 20.1 (09:20) 14 (00:00) 17.1 20.28 (10:10) 8.89 (10:50) 0 0 0 0 0

Gráficas

Temp. máximas Temp. mínimas Temp. medias Precipitaciones Rachas de viento máximas Velocidades máximas media en intervalos de 10 minutos

Datos horarios

Fecha y hora oficial Temperatura (ºC) Velocidad del viento (km/h) Dirección del viento Racha (km/h) Dirección de racha Precipitación (mm) Presión (hPa) Tendencia (hPa) Humedad (%)
2021-02-28 23:00:00 13.4 10 Nordeste 22 Nordeste 0 -- -- 64
2021-02-28 22:00:00 13 12 Este 35 Este 0 -- -- 67
2021-02-28 21:00:00 12.8 14 Este 35 Este 0 -- -- 72
2021-02-28 20:00:00 13.2 11 Este 23 Este 0 -- -- 70
2021-02-28 19:00:00 13.6 8 Este 24 Sudeste 0 -- -- 68
2021-02-28 18:00:00 14.5 8 Sudeste 21 Nordeste 0 -- -- 65
2021-02-28 17:00:00 14.3 10 Nordeste 18 Nordeste 0 -- -- 76
2021-02-28 16:00:00 14.4 7 Nordeste 18 Nordeste 0 -- -- 77
2021-02-28 15:00:00 13.7 12 Nordeste 23 Nordeste 0 -- -- 80
2021-02-28 14:00:00 13.5 13 Nordeste 21 Nordeste 0 -- -- 78
2021-02-28 13:00:00 14 12 Nordeste 21 Nordeste 0 -- -- 72
2021-02-28 12:00:00 13.2 12 Nordeste 22 Nordeste 0 -- -- 76
2021-02-28 11:00:00 13.5 9 Nordeste 21 Este 0 -- -- 73
2021-02-28 10:00:00 13.1 8 Este 16 Nordeste 0 -- -- 71
2021-02-28 09:00:00 12.7 6 Sudeste 14 Este 0 -- -- 72
2021-02-28 08:00:00 10.8 7 Sudeste 12 Sudeste 0 -- -- 80
2021-02-28 07:00:00 11.1 8 Sudeste 17 Sudeste 0 -- -- 80
2021-02-28 06:00:00 11.1 8 Sudeste 20 Sur 0 -- -- 75
2021-02-28 05:00:00 11.4 6 Sudeste 16 Sudeste 0 -- -- 73
2021-02-28 04:00:00 10.7 6 Sudeste 11 Sudeste 0 -- -- 74
2021-02-28 03:00:00 11.3 6 Sudeste 15 Sudeste 0 -- -- 72
2021-02-28 02:00:00 10.9 5 Sur 10 Sudeste 0 -- -- 78
2021-02-28 01:00:00 10.8 6 Sudeste 11 Sudeste 0 -- -- 76
2021-02-28 00:00:00 10.8 6 Sudeste 11 Este 0 -- -- 75
2021-02-27 23:00:00 11.8 5 Sudeste 20 Sudeste 0 -- -- 70
2021-02-27 22:00:00 11.4 9 Sudeste 16 Sudeste 0 -- -- 72
2021-02-27 21:00:00 11.4 8 Sur 15 Sur 0 -- -- 80
2021-02-27 20:00:00 10.7 8 Sur 12 Sudoeste 0 -- -- 86
2021-02-27 19:00:00 11.8 5 Sur 9 Sur 0 -- -- 86
2021-02-27 18:00:00 13.3 0 Calma 4 Norte 0 -- -- 83
2021-02-27 17:00:00 13.4 0 Calma 5 Nordeste 0 -- -- 83
2021-02-27 16:00:00 13.4 4 Norte 8 Norte 0 -- -- 82
2021-02-27 15:00:00 13.5 3 Norte 8 Norte 0 -- -- 81
2021-02-27 14:00:00 13.1 4 Norte 11 Norte 0 -- -- 81
2021-02-27 13:00:00 13.1 5 Norte 11 Norte 0 -- -- 80
2021-02-27 12:00:00 12.9 7 Norte 16 Norte 0 -- -- 80
2021-02-27 11:00:00 12.6 5 Norte 14 Nordeste 0 -- -- 81
2021-02-27 10:00:00 12.1 5 Nordeste 9 Nordeste 0 -- -- 82
2021-02-27 09:00:00 11.4 5 Sudeste 10 Sur 0 -- -- 86
2021-02-27 08:00:00 10.1 7 Sur 12 Sudeste 0 -- -- 87
2021-02-27 07:00:00 10.5 8 Sur 12 Sudeste 0 -- -- 86
2021-02-27 06:00:00 11 4 Sudeste 15 Sudeste 0 -- -- 87
2021-02-27 05:00:00 10.6 6 Sur 11 Sur 0 -- -- 89
2021-02-27 04:00:00 10.7 4 Sudeste 9 Sur 0 -- -- 90
2021-02-27 03:00:00 10.1 4 Sudeste 10 Sur 0 -- -- 92
2021-02-27 02:00:00 9 7 Sur 10 Sur 0 -- -- 90
2021-02-27 01:00:00 9 8 Sur 11 Sur 0 -- -- 90
2021-02-27 00:00:00 9.3 8 Sur 10 Sur 0 -- -- 90
2021-02-26 23:00:00 9.6 9 Sur 12 Sur 0 -- -- 89
2021-02-26 22:00:00 10.1 8 Sur 11 Sur 0 -- -- 86
2021-02-26 21:00:00 11.5 4 Sudeste 8 Este 0 -- -- 84
2021-02-26 20:00:00 12.2 4 Este 12 Nordeste 0 -- -- 83
2021-02-26 19:00:00 12.4 7 Este 18 Nordeste 0 -- -- 82
2021-02-26 18:00:00 12.9 12 Nordeste 19 Nordeste 0 -- -- 80
2021-02-26 17:00:00 13.3 10 Nordeste 18 Nordeste 0 -- -- 78
2021-02-26 16:00:00 13.5 11 Nordeste 18 Nordeste 0 -- -- 77
2021-02-26 15:00:00 14.1 10 Nordeste 17 Norte 0 -- -- 74
2021-02-26 14:00:00 13.9 9 Nordeste 18 Nordeste 0 -- -- 74
2021-02-26 13:00:00 13.7 8 Nordeste 14 Norte 0 -- -- 74
2021-02-26 12:00:00 13.3 6 Norte 12 Norte 0 -- -- 74
2021-02-26 11:00:00 13 4 Norte 12 Norte 0 -- -- 75
2021-02-26 10:00:00 12.9 5 Norte 10 Norte 0 -- -- 76
2021-02-26 09:00:00 10.7 6 Sudeste 13 Sur 0 -- -- 83
2021-02-26 08:00:00 9.8 8 Sur 16 Sudeste 0 -- -- 82
2021-02-26 07:00:00 10.1 8 Sur 12 Sur 0 -- -- 84
2021-02-26 06:00:00 10.5 6 Sudeste 8 Sudeste 0 -- -- 88
2021-02-26 05:00:00 10.3 6 Sur 10 Sur 0 -- -- 90
2021-02-26 04:00:00 10.6 6 Sur 10 Sudoeste 0 -- -- 89
2021-02-26 03:00:00 10.3 6 Sur 12 Sur 0 -- -- 90
2021-02-26 02:00:00 9.8 9 Sur 13 Sur 0 -- -- 89
2021-02-26 01:00:00 10.5 6 Sudeste 13 Sur 0 -- -- 89
2021-02-26 00:00:00 9.9 8 Sur 12 Sur 0 -- -- 88
2021-02-25 23:00:00 10.2 8 Sur 13 Sur 0 -- -- 88
2021-02-25 22:00:00 10.2 9 Sur 12 Sur 0 -- -- 86
2021-02-25 21:00:00 10.8 8 Sur 12 Sur 0 -- -- 85
2021-02-25 20:00:00 11.1 5 Sur 12 Sur 0 -- -- 85
2021-02-25 19:00:00 11.9 5 Sur 13 Nordeste 0 -- -- 81
2021-02-25 18:00:00 14.1 8 Nordeste 19 Nordeste 0 -- -- 75
2021-02-25 17:00:00 14.4 12 Nordeste 19 Nordeste 0 -- -- 73
2021-02-25 16:00:00 14.8 11 Nordeste 19 Nordeste 0 -- -- 72
2021-02-25 15:00:00 14.9 9 Nordeste 15 Nordeste 0 -- -- 73
2021-02-25 14:00:00 14.7 10 Nordeste 17 Nordeste 0 -- -- 75
2021-02-25 13:00:00 14.2 9 Norte 14 Norte 0 -- -- 73
2021-02-25 12:00:00 14.1 6 Norte 8 Norte 0 -- -- 76
2021-02-25 11:00:00 14.7 2 Norte 4 Norte 0 -- -- 68
2021-02-25 10:00:00 13 2 Sur 8 Sur 0 -- -- 77
2021-02-25 09:00:00 11.4 6 Sur 11 Sur 0 -- -- 82
2021-02-25 08:00:00 9.8 8 Sur 10 Sur 0 -- -- 84
2021-02-25 07:00:00 9.7 7 Sur 12 Sur 0 -- -- 84
2021-02-25 06:00:00 9.7 9 Sur 12 Sur 0 -- -- 83
2021-02-25 05:00:00 10.1 6 Sur 12 Sur 0 -- -- 82
2021-02-25 04:00:00 10.5 6 Sur 13 Sur 0 -- -- 80
2021-02-25 03:00:00 10.5 7 Sur 12 Sur 0 -- -- 82
2021-02-25 02:00:00 10.5 5 Sur 10 Sur 0 -- -- 85
2021-02-25 01:00:00 10.4 7 Sur 13 Sur 0 -- -- 87
2021-02-25 00:00:00 10.6 8 Sur 12 Sur 0 -- -- 87
2021-02-24 23:00:00 11.4 5 Sur 16 Este 0 -- -- 82
2021-02-24 22:00:00 13 6 Sudeste 15 Este 0 -- -- 78
2021-02-24 21:00:00 12.5 4 Sur 8 Sur 0 -- -- 85
2021-02-24 20:00:00 12.9 4 Sudeste 8 Sur 0 -- -- 84
2021-02-24 19:00:00 12.9 5 Sur 8 Sudoeste 0 -- -- 85
2021-02-24 18:00:00 13.7 4 Sur 6 Sur 0 -- -- 82
2021-02-24 17:00:00 13.9 0 Calma 8 Nordeste 0 -- -- 83
2021-02-24 16:00:00 13.9 3 Nordeste 11 Nordeste 0 -- -- 83
2021-02-24 15:00:00 13.9 6 Nordeste 13 Nordeste 0 -- -- 83
2021-02-24 14:00:00 13.9 6 Nordeste 15 Este 0 -- -- 85
2021-02-24 13:00:00 13.8 8 Nordeste 19 Nordeste 0 -- -- 87
2021-02-24 12:00:00 14 13 Nordeste 21 Nordeste 0 -- -- 86
2021-02-24 11:00:00 14.1 14 Nordeste 34 Este 0 -- -- 86
2021-02-24 10:00:00 14.2 14 Nordeste 26 Este 0 -- -- 76
2021-02-24 09:00:00 13.1 3 Oeste 18 Sudoeste 0 -- -- 85
2021-02-24 08:00:00 11.4 7 Sudoeste 13 Sur 0 -- -- 91
2021-02-24 07:00:00 11 7 Sur 12 Sur 0 -- -- 92
2021-02-24 06:00:00 11.5 6 Sur 14 Sudoeste 0 -- -- 90
2021-02-24 05:00:00 12.3 6 Sudoeste 11 Oeste 0 -- -- 89
2021-02-24 04:00:00 11.1 8 Sur 12 Sur 0 -- -- 89
2021-02-24 03:00:00 11.2 7 Sur 15 Sudoeste 0 -- -- 88
2021-02-24 02:00:00 11.7 9 Sur 15 Sur 0 -- -- 87
2021-02-24 01:00:00 11.7 5 Sur 11 Sur 0 -- -- 85
2021-02-24 00:00:00 12.1 8 Sur 14 Sur 0 -- -- 83
2021-02-23 23:00:00 12.3 4 Sur 12 Sur 0 -- -- 83
2021-02-23 22:00:00 12.5 6 Sur 12 Sur 0 -- -- 87
2021-02-23 21:00:00 12.6 8 Sur 13 Sur 0 -- -- 87
2021-02-23 20:00:00 13.6 4 Sudeste 14 Sudeste 0 -- -- 88
2021-02-23 19:00:00 13.2 2 Este 6 Nordeste 0 -- -- 92
2021-02-23 18:00:00 14.5 4 Este 15 Sudeste 0 -- -- 91
2021-02-23 17:00:00 14.1 10 Nordeste 15 Nordeste 0 -- -- 93
2021-02-23 16:00:00 14.3 7 Nordeste 14 Nordeste 0 -- -- 90
2021-02-23 15:00:00 14.4 8 Nordeste 16 Nordeste 0 -- -- 87
2021-02-23 14:00:00 14.3 5 Nordeste 10 Norte 0 -- -- 85
2021-02-23 13:00:00 14.3 4 Norte 11 Nordeste 0 -- -- 82
2021-02-23 12:00:00 14.5 3 Norte 5 Norte 0 -- -- 73
2021-02-23 11:00:00 14.4 2 Norte 8 Sur 0 -- -- 72
2021-02-23 10:00:00 13.4 5 Sudoeste 9 Sur 0 -- -- 77
2021-02-23 09:00:00 12.2 2 Sur 10 Sudeste 0 -- -- 78
2021-02-23 08:00:00 11.2 4 Sudeste 14 Sudeste 0 -- -- 75
2021-02-23 07:00:00 11.4 8 Sudeste 13 Sudeste 0 -- -- 76
2021-02-23 06:00:00 11.1 8 Sur 11 Sur 0 -- -- 79
2021-02-23 05:00:00 11.4 7 Sur 11 Sur 0 -- -- 78
2021-02-23 04:00:00 10.8 8 Sur 12 Sur 0 -- -- 77
2021-02-23 03:00:00 9.7 8 Sur 10 Sur 0 -- -- 81
2021-02-23 02:00:00 10.1 5 Sur 11 Sur 0 -- -- 82
2021-02-23 01:00:00 10 5 Sur 12 Sur 0 -- -- 86
2021-02-23 00:00:00 10.3 6 Sur 14 Sur 0 -- -- 85
2021-02-22 23:00:00 10.3 7 Sur 13 Sur 0 -- -- 86
2021-02-22 22:00:00 10.7 6 Sur 13 Sur 0 -- -- 88
2021-02-22 21:00:00 10.7 8 Sur 12 Sur 0 -- -- 88
2021-02-22 20:00:00 11.7 7 Sudoeste 14 Sur 0 -- -- 85
2021-02-22 19:00:00 12 7 Sur 13 Sur 0 -- -- 85
2021-02-22 18:00:00 14.7 3 Noroeste 5 Norte 0 -- -- 74
2021-02-22 17:00:00 14.5 2 Norte 14 Noroeste 0 -- -- 77
2021-02-22 16:00:00 13.8 5 Noroeste 16 Sur 0.4 -- -- 79
2021-02-22 15:00:00 12.5 11 Sudoeste 16 Sudoeste 9.6 -- -- 89
2021-02-22 14:00:00 12.8 4 Oeste 28 Oeste 3.8 -- -- 86
2021-02-22 13:00:00 14.8 12 Sur 26 Sudeste 0.2 -- -- 74
2021-02-22 12:00:00 14.8 4 Norte 30 Sudoeste 0 -- -- 76
2021-02-22 11:00:00 14.4 6 Oeste 26 Este 0.4 -- -- 74
2021-02-22 10:00:00 13.4 6 Sudeste 28 Sudeste 1.2 -- -- 79
2021-02-22 09:00:00 13.5 17 Sur 34 Sur 0.8 -- -- 75
2021-02-22 08:00:00 13.9 16 Sur 37 Sudoeste 0.4 -- -- 73
2021-02-22 07:00:00 14.5 11 Sur 32 Sur 0 -- -- 72
2021-02-22 06:00:00 15.1 19 Sur 42 Sur 0 -- -- 69
2021-02-22 05:00:00 15.5 15 Sudeste 50 Sudeste 0 -- -- 65
2021-02-22 04:00:00 15.6 23 Sur 48 Sudeste 0 -- -- 64
2021-02-22 03:00:00 16.9 26 Sur 63 Sudeste 0 -- -- 54
2021-02-22 02:00:00 17.6 31 Sudeste 62 Sudeste 0 -- -- 57
2021-02-22 01:00:00 19.3 16 Sudeste 44 Oeste 0 -- -- 45
2021-02-22 00:00:00 19.8 10 Sudeste 68 Sudeste 0 -- -- 42
2021-02-21 23:00:00 18.8 24 Sur 64 Sudeste 0 -- -- 54
2021-02-21 22:00:00 19.6 24 Sudeste 58 Sudeste 0 -- -- 47
2021-02-21 21:00:00 19.6 20 Sudeste 48 Sudeste 0 -- -- 49
2021-02-21 20:00:00 18.4 18 Sudeste 50 Sudeste 0 -- -- 54
2021-02-21 19:00:00 18.1 25 Sudeste 59 Sudeste 0 -- -- 56
2021-02-21 18:00:00 18 32 Sudeste 67 Sudeste 0 -- -- 57
2021-02-21 17:00:00 19.2 31 Sudeste 61 Sudeste 0 -- -- 52
2021-02-21 16:00:00 19 39 Sudeste 67 Sudeste 0 -- -- 55
2021-02-21 15:00:00 19 33 Sudeste 63 Sudeste 0 -- -- 57
2021-02-21 14:00:00 19 31 Sudeste 58 Sudeste 0 -- -- 59
2021-02-21 13:00:00 19 27 Sudeste 68 Sudeste 0 -- -- 58
2021-02-21 12:00:00 17.7 31 Sudeste 78 Sudeste 0 -- -- 64
2021-02-21 11:00:00 17.7 41 Sudeste 67 Sudeste 0 -- -- 59
2021-02-21 10:00:00 17 30 Sudeste 60 Este 0 -- -- 58
2021-02-21 09:00:00 15.5 24 Sudeste 53 Sudeste 0 -- -- 66
2021-02-21 08:00:00 15.4 32 Sudeste 59 Sudeste 0 -- -- 62
2021-02-21 07:00:00 16.4 32 Sudeste 70 Sudeste 0 -- -- 50
2021-02-21 06:00:00 16.7 39 Sudeste 67 Sudeste 0 -- -- 43
2021-02-21 05:00:00 15.7 35 Sudeste 57 Sudeste 0 -- -- 48
2021-02-21 04:00:00 16 35 Sudeste 67 Sudeste 0 -- -- 43
2021-02-21 03:00:00 16 41 Sudeste 70 Sudeste 0 -- -- 44
2021-02-21 02:00:00 16.7 33 Sudeste 61 Sudeste 0 -- -- 39
2021-02-21 01:00:00 17 32 Sudeste 59 Sudeste 0 -- -- 35
2021-02-21 00:00:00 16.7 35 Sudeste 60 Sudeste 0 -- -- 35
2021-02-20 23:00:00 17 33 Sudeste 57 Sudeste 0 -- -- 30
2021-02-20 22:00:00 16.9 12 Sudeste 39 Sudeste 0 -- -- 29
2021-02-20 21:00:00 11.8 4 Sur 12 Sudoeste 0 -- -- 75
2021-02-20 20:00:00 11.9 4 Sur 10 Sudoeste 0 -- -- 76
2021-02-20 19:00:00 12.2 2 Sur 9 Sur 0 -- -- 79
2021-02-20 18:00:00 13.5 2 Sur 8 Sudoeste 0 -- -- 73
2021-02-20 17:00:00 14.7 3 Oeste 12 Noroeste 0 -- -- 77
2021-02-20 16:00:00 14.7 4 Noroeste 8 Norte 0 -- -- 78
2021-02-20 15:00:00 14.4 5 Norte 10 Norte 0 -- -- 81
2021-02-20 14:00:00 13.6 4 Norte 12 Norte 0 -- -- 83
2021-02-20 13:00:00 13.4 6 Norte 15 Norte 0 -- -- 83
2021-02-20 12:00:00 13.3 5 Noroeste 17 Norte 0 -- -- 81
2021-02-20 11:00:00 12.7 4 Nordeste 8 Nordeste 0 -- -- 80
2021-02-20 10:00:00 12.2 3 Sur 13 Sur 0 -- -- 84
2021-02-20 09:00:00 9.9 6 Sur 13 Sudoeste 0 -- -- 88
2021-02-20 08:00:00 9.3 7 Sudeste 15 Sur 0 -- -- 90
2021-02-20 07:00:00 8.5 8 Sur 15 Sur 0 -- -- 89
2021-02-20 06:00:00 9.1 8 Sudeste 11 Sudeste 0 -- -- 90
2021-02-20 05:00:00 9.1 6 Sudeste 9 Sudeste 0 -- -- 91
2021-02-20 04:00:00 9.4 5 Sur 10 Sur 0 -- -- 91
2021-02-20 03:00:00 9.7 6 Sur 12 Sur 0 -- -- 91
2021-02-20 02:00:00 9.2 6 Sur 12 Sur 0 -- -- 91
2021-02-20 01:00:00 9 8 Sur 13 Sur 0 -- -- 90
2021-02-20 00:00:00 10.1 7 Sudeste 11 Sudeste 0 -- -- 91
2021-02-19 23:00:00 9.5 5 Sur 13 Sur 0 -- -- 89
2021-02-19 22:00:00 10.2 5 Sur 12 Sur 0 -- -- 88
2021-02-19 21:00:00 10.9 5 Sur 10 Sur 0 -- -- 89
2021-02-19 20:00:00 9.8 7 Sur 10 Sur 0 -- -- 88
2021-02-19 19:00:00 10.5 6 Sur 10 Sur 0 -- -- 86
2021-02-19 18:00:00 13 5 Sur 12 Norte 0 -- -- 78
2021-02-19 17:00:00 13.5 6 Norte 13 Norte 0 -- -- 79
2021-02-19 16:00:00 13.7 6 Norte 13 Norte 0 -- -- 78
2021-02-19 15:00:00 13.4 9 Norte 13 Norte 0 -- -- 80
2021-02-19 14:00:00 13.2 9 Norte 16 Norte 0 -- -- 80
2021-02-19 13:00:00 13.5 9 Norte 14 Norte 0 -- -- 78
2021-02-19 12:00:00 13.5 6 Norte 10 Norte 0 -- -- 80
2021-02-19 11:00:00 13.3 3 Norte 5 Norte 0 -- -- 79
2021-02-19 10:00:00 12.6 2 Este 9 Sur 0 -- -- 84
2021-02-19 09:00:00 10.6 4 Sur 11 Sudeste 0 -- -- 87
2021-02-19 08:00:00 8.7 6 Sur 14 Sur 0 -- -- 88
2021-02-19 07:00:00 8.6 11 Sur 14 Sur 0 -- -- 87
2021-02-19 06:00:00 9.9 6 Sur 12 Sur 0 -- -- 87
2021-02-19 05:00:00 10.8 6 Sur 11 Sudeste 0 -- -- 86
2021-02-19 04:00:00 9.7 4 Sudeste 10 Sur 0 -- -- 83
2021-02-19 03:00:00 9.2 8 Sur 11 Sur 0 -- -- 79
2021-02-19 02:00:00 9.2 7 Sur 13 Sur 0 -- -- 78
2021-02-19 01:00:00 9.1 11 Sur 14 Sur 0 -- -- 78
2021-02-19 00:00:00 9.5 8 Sur 14 Sur 0 -- -- 79
2021-02-18 23:00:00 9.8 6 Sur 12 Sur 0 -- -- 76
2021-02-18 22:00:00 10.1 7 Sur 13 Sur 0 -- -- 84
2021-02-18 21:00:00 10.5 5 Sur 12 Sur 0 -- -- 84
2021-02-18 20:00:00 10.8 6 Sur 11 Sur 0 -- -- 79
2021-02-18 19:00:00 11.9 5 Sudeste 14 Sudoeste 0 -- -- 79
2021-02-18 18:00:00 13.5 0 Calma 9 Noroeste 0 -- -- 76
2021-02-18 17:00:00 15 2 Oeste 12 Norte 0 -- -- 73
2021-02-18 16:00:00 14.9 3 Norte 7 Norte 0 -- -- 68
2021-02-18 15:00:00 13.7 3 Norte 10 Norte 0 -- -- 80
2021-02-18 14:00:00 12.9 4 Norte 10 Norte 0 -- -- 84
2021-02-18 13:00:00 12.9 6 Norte 11 Norte 0 -- -- 83
2021-02-18 12:00:00 12.6 9 Norte 18 Noroeste 0 -- -- 84
2021-02-18 11:00:00 12.4 8 Oeste 15 Sudoeste 0 -- -- 80
2021-02-18 10:00:00 11.4 3 Sur 12 Sur 0 -- -- 83
2021-02-18 09:00:00 9.3 7 Sur 13 Sur 0 -- -- 89
2021-02-18 08:00:00 8.7 8 Sudeste 14 Sudeste 0 -- -- 90
2021-02-18 07:00:00 8.8 7 Sur 11 Sudeste 0 -- -- 90
2021-02-18 06:00:00 8.4 6 Sur 13 Sudeste 0 -- -- 89
2021-02-18 05:00:00 8.3 8 Sur 12 Sudeste 0 -- -- 89
2021-02-18 04:00:00 8.5 8 Sur 13 Sur 0 -- -- 88
2021-02-18 03:00:00 8.4 5 Sur 11 Sur 0 -- -- 89
2021-02-18 02:00:00 8.8 7 Sur 12 Sur 0 -- -- 89
2021-02-18 01:00:00 9 9 Sur 14 Sur 0 -- -- 89
2021-02-18 00:00:00 9.1 7 Sur 13 Sur 0 -- -- 88
2021-02-17 23:00:00 9.3 7 Sur 13 Sur 0 -- -- 87
2021-02-17 22:00:00 9.3 8 Sur 13 Sur 0 -- -- 87
2021-02-17 21:00:00 9.6 10 Sur 12 Sur 0 -- -- 87
2021-02-17 20:00:00 10.1 7 Sur 10 Sur 0 -- -- 86
2021-02-17 19:00:00 10.9 4 Sur 8 Sur 0 -- -- 84
2021-02-17 18:00:00 13.4 5 Sur 6 Norte 0 -- -- 76
2021-02-17 17:00:00 13.8 4 Norte 9 Norte 0 -- -- 76
2021-02-17 16:00:00 14.5 6 Norte 11 Norte 0 -- -- 73
2021-02-17 15:00:00 14.3 5 Norte 8 Norte 0 -- -- 72
2021-02-17 14:00:00 14.4 4 Norte 8 Norte 0 -- -- 71
2021-02-17 13:00:00 13.6 5 Norte 8 Norte 0 -- -- 74
2021-02-17 12:00:00 13.5 5 Norte 9 Norte 0 -- -- 74
2021-02-17 11:00:00 13.2 4 Norte 8 Sur 0 -- -- 73
2021-02-17 10:00:00 11.7 5 Sur 9 Sur 0 -- -- 79
2021-02-17 09:00:00 10.2 5 Sur 13 Sur 0 -- -- 83
2021-02-17 08:00:00 8.8 9 Sur 12 Sur 0 -- -- 82
2021-02-17 07:00:00 9 9 Sur 13 Sur 0 -- -- 80
2021-02-17 06:00:00 10.2 4 Sur 15 Sudeste 0 -- -- 74
2021-02-17 05:00:00 10.1 5 Sudeste 12 Este 0 -- -- 75
2021-02-17 04:00:00 10.7 6 Sudeste 11 Sudeste 0 -- -- 73
2021-02-17 03:00:00 11.1 8 Sudeste 16 Sudeste 0 -- -- 74
2021-02-17 02:00:00 11.6 9 Sudeste 19 Sudeste 0 -- -- 72
2021-02-17 01:00:00 10 6 Sur 11 Este 0 -- -- 65
2021-02-17 00:00:00 9.3 7 Sur 12 Sur 0 -- -- 68
2021-02-16 23:00:00 9.4 11 Sur 14 Sur 0 -- -- 63
2021-02-16 22:00:00 9.4 9 Sur 14 Sudoeste 0 -- -- 66
2021-02-16 21:00:00 9.7 13 Sur 16 Sur 0 -- -- 67
2021-02-16 20:00:00 9.9 7 Sur 13 Sur 0 -- -- 73
2021-02-16 19:00:00 10.4 10 Sur 14 Sur 0 -- -- 74
2021-02-16 18:00:00 12.9 8 Sur 11 Sur 0 -- -- 69
2021-02-16 17:00:00 15 5 Oeste 19 Oeste 0 -- -- 61
2021-02-16 16:00:00 15.1 5 Noroeste 19 Noroeste 0 -- -- 61
2021-02-16 15:00:00 14.3 10 Oeste 27 Oeste 0 -- -- 64
2021-02-16 14:00:00 14.1 11 Oeste 28 Noroeste 0 -- -- 64
2021-02-16 13:00:00 13.9 4 Nordeste 9 Norte 0 -- -- 59
2021-02-16 12:00:00 13 4 Norte 8 Norte 0 -- -- 62
2021-02-16 11:00:00 13 2 Norte 30 Sur 0 -- -- 61
2021-02-16 10:00:00 12.2 10 Sur 31 Sur 0 -- -- 62
2021-02-16 09:00:00 10.5 12 Sur 27 Sudeste 0 -- -- 68
2021-02-16 08:00:00 10.1 8 Sur 22 Sudeste 0 -- -- 68
2021-02-16 07:00:00 9.1 4 Sudeste 10 Sur 0 -- -- 69
2021-02-16 06:00:00 9 4 Sur 10 Sudoeste 0 -- -- 70
2021-02-16 05:00:00 8.6 3 Sur 9 Sur 0 -- -- 73
2021-02-16 04:00:00 8.2 5 Sur 12 Sur 0 -- -- 74
2021-02-16 03:00:00 9 6 Sudeste 9 Sudeste 0 -- -- 73
2021-02-16 02:00:00 9.1 5 Sur 8 Sur 0 -- -- 71
2021-02-16 01:00:00 10.1 4 Sudeste 7 Sur 0 -- -- 70
2021-02-16 00:00:00 10.1 3 Sur 6 Sudeste 0 -- -- 69
2021-02-15 23:00:00 10.4 2 Sudeste 7 Sudeste 0 -- -- 68
2021-02-15 22:00:00 10.6 3 Sur 8 Sudeste 0 -- -- 68
2021-02-15 21:00:00 11 4 Sur 18 Sur 0 -- -- 65
2021-02-15 20:00:00 11.1 6 Sur 18 Sudeste 0 -- -- 63
2021-02-15 19:00:00 11.1 10 Sur 23 Sur 0 -- -- 64
2021-02-15 18:00:00 11.4 16 Sur 26 Sudoeste 0 -- -- 63
2021-02-15 17:00:00 12.2 7 Sur 20 Sudoeste 0 -- -- 61
2021-02-15 16:00:00 12.6 6 Noroeste 13 Norte 0 -- -- 60
2021-02-15 15:00:00 13 4 Noroeste 11 Norte 0 -- -- 58
2021-02-15 14:00:00 13.1 5 Noroeste 10 Nordeste 0 -- -- 56
2021-02-15 13:00:00 12.7 5 Norte 16 Nordeste 0 -- -- 56
2021-02-15 12:00:00 12 6 Nordeste 15 Nordeste 0 -- -- 57
2021-02-15 11:00:00 11.4 7 Este 17 Sudeste 0 -- -- 57
2021-02-15 10:00:00 11 4 Sudeste 17 Sudeste 0 -- -- 60
2021-02-15 09:00:00 10.6 6 Sudeste 17 Sudeste 0 -- -- 60
2021-02-15 08:00:00 10.2 9 Sudeste 18 Sudeste 0 -- -- 60
2021-02-15 07:00:00 10.2 7 Sudeste 17 Sudeste 0 -- -- 57
2021-02-15 06:00:00 10.1 8 Sudeste 18 Sudeste 0 -- -- 53
2021-02-15 05:00:00 9.9 9 Sudeste 21 Sudeste 0 -- -- 49
2021-02-15 04:00:00 10 13 Sudeste 23 Sudeste 0 -- -- 39
2021-02-15 03:00:00 10.2 6 Sudeste 12 Sudeste 0 -- -- 46
2021-02-15 02:00:00 10.3 4 Este 12 Sudeste 0 -- -- 50
2021-02-15 01:00:00 9.8 4 Sudeste 8 Sur 0 -- -- 55
2021-02-15 00:00:00 9.7 5 Sur 9 Sur 0 -- -- 69
2021-02-14 23:00:00 10.1 3 Sur 10 Sudeste 0 -- -- 67
2021-02-14 22:00:00 10 5 Sudeste 21 Sudeste 0 -- -- 65
2021-02-14 21:00:00 9.7 14 Sudeste 26 Sudeste 0 -- -- 62
2021-02-14 20:00:00 9.9 16 Sudeste 29 Sudeste 0 -- -- 64
2021-02-14 19:00:00 10.3 14 Sudeste 39 Sudeste 0 -- -- 60
2021-02-14 18:00:00 10.5 18 Sudeste 38 Sudeste 0 -- -- 59
2021-02-14 17:00:00 10.7 19 Sudeste 41 Sudeste 0 -- -- 60
2021-02-14 16:00:00 11.3 18 Sudeste 36 Sudeste 0 -- -- 65
2021-02-14 15:00:00 11.7 17 Sudeste 35 Sudeste 0 -- -- 62
2021-02-14 14:00:00 11.8 22 Sudeste 42 Este 0 -- -- 64
2021-02-14 13:00:00 12.8 18 Sudeste 45 Sudeste 0 -- -- 63
2021-02-14 12:00:00 12.5 17 Sudeste 31 Sudeste 0 -- -- 65
2021-02-14 11:00:00 12.8 12 Sudeste 22 Sudeste 0 -- -- 64
2021-02-14 10:00:00 12.7 3 Sudeste 15 Sur 0 -- -- 70
2021-02-14 09:00:00 11.8 6 Sur 10 Sudoeste 0 -- -- 74
2021-02-14 08:00:00 12.1 4 Sudeste 24 Sudeste 0 -- -- 74
2021-02-14 07:00:00 12.2 10 Sudeste 24 Sudeste 0 -- -- 76
2021-02-14 06:00:00 12.1 9 Sudeste 19 Sudeste 0 -- -- 78
2021-02-14 05:00:00 11 6 Sur 11 Sur 0 -- -- 79
2021-02-14 04:00:00 10.8 8 Sur 12 Sur 0 -- -- 79
2021-02-14 03:00:00 11.1 6 Sur 10 Sur 0 -- -- 79
2021-02-14 02:00:00 11.6 4 Sur 11 Sur 0 -- -- 76
2021-02-14 01:00:00 11.1 4 Sur 10 Sur 0 -- -- 77
2021-02-14 00:00:00 11.6 7 Sur 10 Sur 0 -- -- 77
2021-02-13 23:00:00 11.7 6 Sur 10 Sur 0 -- -- 77
2021-02-13 22:00:00 11.8 6 Sur 10 Sur 0 -- -- 78
2021-02-13 21:00:00 11.9 8 Sur 13 Sur 0 -- -- 72
2021-02-13 20:00:00 11.7 6 Sudeste 11 Sur 0 -- -- 77
2021-02-13 19:00:00 11.3 5 Sur 12 Sur 0 -- -- 81
2021-02-13 18:00:00 13.9 4 Sur 9 Sur 0 -- -- 77
2021-02-13 17:00:00 14.7 4 Norte 6 Norte 0 -- -- 75
2021-02-13 16:00:00 15.6 3 Norte 8 Noroeste 0 -- -- 72
2021-02-13 15:00:00 14.8 4 Norte 8 Norte 0 -- -- 76
2021-02-13 14:00:00 13.9 3 Norte 10 Norte 0 -- -- 80
2021-02-13 13:00:00 14.2 3 Norte 6 Norte 0 -- -- 79
2021-02-13 08:00:00 -- -- -- -- -- -- -- -- --
2021-02-13 07:00:00 11.5 8 Sur 14 Sur 0 -- -- 81
2021-02-13 06:00:00 11.6 8 Sur 13 Sur 0 -- -- 80
2021-02-13 05:00:00 12.6 9 Sudoeste 18 Sudoeste 0 -- -- 77
2021-02-13 04:00:00 13.4 7 Sudoeste 20 Sudoeste 0 -- -- 75
2021-02-13 03:00:00 12.9 12 Sudoeste 23 Sudoeste 0 -- -- 77
2021-02-13 02:00:00 12.1 11 Sudoeste 17 Sudoeste 0 -- -- 82
2021-02-13 01:00:00 12.6 5 Sur 9 Sur 0 -- -- 84
2021-02-13 00:00:00 13.9 8 Sudoeste 21 Sudoeste 0 -- -- 78
2021-02-12 23:00:00 14 6 Oeste 32 Sur 0 -- -- 75
2021-02-12 22:00:00 13.9 17 Sudoeste 33 Sur 0.2 -- -- 76
2021-02-12 21:00:00 13.4 13 Sudoeste 23 Sudoeste 1 -- -- 81
2021-02-12 20:00:00 14.4 10 Sudoeste 22 Sur 0 -- -- 71
2021-02-12 19:00:00 13.7 14 Sudoeste 22 Sur 0 -- -- 75
2021-02-12 18:00:00 14.3 12 Sudoeste 24 Sur 0.2 -- -- 75
2021-02-12 17:00:00 15.5 11 Sudoeste 36 Oeste 0 -- -- 68
2021-02-12 16:00:00 15.9 18 Oeste 40 Sudoeste 0 -- -- 72
2021-02-12 15:00:00 17.7 16 Oeste 43 Sudoeste 0 -- -- 62
2021-02-12 14:00:00 17.7 20 Sudoeste 45 Oeste 0 -- -- 60
2021-02-12 13:00:00 18 16 Sudoeste 35 Sudoeste 0 -- -- 60
2021-02-12 12:00:00 18 15 Sudoeste 34 Oeste 0 -- -- 62
2021-02-12 11:00:00 19.1 10 Sudoeste 32 Oeste 0 -- -- 58
2021-02-12 10:00:00 19.1 11 Sudoeste 30 Sudoeste 0 -- -- 56
2021-02-12 09:00:00 19.2 12 Sudoeste 32 Sudoeste 0 -- -- 53
2021-02-12 08:00:00 18.2 9 Sudoeste 26 Oeste 0 -- -- 56
2021-02-12 07:00:00 18 10 Oeste 21 Oeste 0 -- -- 56
2021-02-12 06:00:00 14.7 5 Sudoeste 10 Sudeste 0 -- -- 70
2021-02-12 05:00:00 14.6 5 Sur 14 Sur 0 -- -- 69
2021-02-12 04:00:00 15.6 5 Sudeste 12 Sudeste 0 -- -- 64
2021-02-12 03:00:00 14.5 4 Sur 15 Sur 0 -- -- 68
2021-02-12 02:00:00 14.7 9 Sur 15 Sur 0 -- -- 69
2021-02-12 01:00:00 14.8 9 Sur 17 Sur 0 -- -- 68
2021-02-12 00:00:00 14.9 11 Sudoeste 15 Sudoeste 0 -- -- 68
2021-02-11 23:00:00 15.4 3 Sur 15 Sudoeste 0 -- -- 65
2021-02-11 22:00:00 14.7 0 Calma 14 Sur 0 -- -- 59
2021-02-11 21:00:00 14.7 2 Sudeste 10 Sur 0 -- -- 53
2021-02-11 20:00:00 14.4 2 Sudoeste 10 Sur 0 -- -- 50
2021-02-11 19:00:00 12.9 4 Sur 10 Sur 0 -- -- 60
2021-02-11 18:00:00 14.7 4 Este 18 Oeste 0 -- -- 60
2021-02-11 17:00:00 16.6 12 Oeste 28 Oeste 0 -- -- 47
2021-02-11 16:00:00 15.8 20 Oeste 31 Oeste 0 -- -- 57
2021-02-11 15:00:00 16 13 Oeste 21 Oeste 0 -- -- 62
2021-02-11 14:00:00 16.2 15 Oeste 27 Sudoeste 0 -- -- 55
2021-02-11 13:00:00 15.8 15 Oeste 30 Oeste 0 -- -- 54
2021-02-11 12:00:00 15.5 14 Oeste 27 Oeste 0 -- -- 58
2021-02-11 11:00:00 15.2 6 Noroeste 15 Oeste 0 -- -- 58
2021-02-11 10:00:00 14.5 4 Sudoeste 14 Sur 0 -- -- 54
2021-02-11 09:00:00 12.1 10 Sudoeste 20 Sudoeste 0 -- -- 57
2021-02-11 08:00:00 11.1 13 Sur 17 Sur 0 -- -- 55
2021-02-11 07:00:00 11.1 13 Sur 23 Sudoeste 0 -- -- 55
2021-02-11 06:00:00 12.1 13 Sur 19 Sur 0 -- -- 50
2021-02-11 05:00:00 12.1 14 Sudoeste 21 Sudoeste 0 -- -- 52
2021-02-11 04:00:00 12.1 14 Sudoeste 18 Sur 0 -- -- 52
2021-02-11 03:00:00 12.3 6 Sudoeste 17 Sudoeste 0 -- -- 52
2021-02-11 02:00:00 10.8 8 Sudoeste 17 Sudoeste 0 -- -- 63
2021-02-11 01:00:00 11.4 10 Sur 16 Sur 0 -- -- 61
2021-02-11 00:00:00 11.5 10 Sur 17 Sur 0 -- -- 62
2021-02-10 23:00:00 13 9 Sur 24 Sudoeste 0 -- -- 57
2021-02-10 22:00:00 13.6 13 Sudoeste 28 Sur 0 -- -- 55
2021-02-10 21:00:00 13.8 12 Sudoeste 26 Sudoeste 0 -- -- 58
2021-02-10 20:00:00 12.5 12 Sudoeste 28 Sur 0 -- -- 66
2021-02-10 19:00:00 12.8 12 Sudoeste 21 Sudoeste 0 -- -- 67
2021-02-10 18:00:00 12.9 7 Sudoeste 21 Noroeste 0 -- -- 64
2021-02-10 17:00:00 14.1 12 Noroeste 24 Oeste 0 -- -- 63
2021-02-10 16:00:00 14.2 13 Noroeste 33 Noroeste 0 -- -- 60
2021-02-10 15:00:00 14.5 18 Oeste 35 Oeste 0 -- -- 63
2021-02-10 14:00:00 14 16 Oeste 30 Oeste 0 -- -- 72
2021-02-10 13:00:00 13 17 Noroeste 44 Oeste 0 -- -- 76
2021-02-10 12:00:00 14.7 21 Oeste 52 Sudoeste 0 -- -- 69
2021-02-10 11:00:00 15.2 27 Oeste 58 Oeste 0 -- -- 57
2021-02-10 10:00:00 15.6 33 Sudoeste 63 Sudoeste 0 -- -- 50
2021-02-10 09:00:00 15.6 26 Sudoeste 57 Sudoeste 0 -- -- 50
2021-02-10 08:00:00 15.1 18 Sudoeste 48 Sudoeste 0 -- -- 57
2021-02-10 07:00:00 15.2 26 Sudoeste 62 Sudoeste 0 -- -- 59
2021-02-10 06:00:00 15.2 26 Sudoeste 53 Sudoeste 0 -- -- 57
2021-02-10 05:00:00 16.1 28 Oeste 68 Sudoeste 0 -- -- 50
2021-02-10 04:00:00 16.5 33 Sudoeste 82 Oeste 0 -- -- 53
2021-02-10 03:00:00 16.3 22 Sudoeste 55 Sudoeste 0 -- -- 57
2021-02-10 02:00:00 16.5 17 Sudoeste 44 Sudoeste 0 -- -- 58
2021-02-10 01:00:00 16.1 24 Sudoeste 50 Oeste 0 -- -- 61
2021-02-10 00:00:00 16.7 23 Oeste 72 Oeste 0 -- -- 55
2021-02-09 23:00:00 17.6 28 Oeste 66 Oeste 0 -- -- 49
2021-02-09 22:00:00 17.4 18 Sudoeste 52 Sudoeste 0 -- -- 48
2021-02-09 21:00:00 16.8 24 Sur 61 Sur 0 -- -- 51
2021-02-09 20:00:00 16.7 22 Sur 66 Sudoeste 0 -- -- 43
2021-02-09 19:00:00 16.2 16 Sudoeste 41 Sudoeste 0 -- -- 43
2021-02-09 18:00:00 17.2 17 Sudoeste 51 Sudoeste 0 -- -- 39
2021-02-09 17:00:00 16.9 18 Sudoeste 45 Oeste 0 -- -- 35
2021-02-09 16:00:00 16 17 Sudoeste 39 Sudoeste 0 -- -- 40
2021-02-09 15:00:00 15.3 20 Sudoeste 46 Oeste 0 -- -- 50
2021-02-09 14:00:00 15.4 17 Sudoeste 55 Oeste 0 -- -- 50
2021-02-09 13:00:00 15.5 15 Sudoeste 48 Sudoeste 0 -- -- 53
2021-02-09 12:00:00 14.4 16 Oeste 40 Sudoeste 0 -- -- 59
2021-02-09 11:00:00 13.9 19 Sudoeste 41 Oeste 0 -- -- 65
2021-02-09 10:00:00 13.6 15 Sudoeste 37 Oeste 0 -- -- 67
2021-02-09 09:00:00 13.3 15 Sudoeste 31 Oeste 0 -- -- 69
2021-02-09 08:00:00 12.8 13 Sudoeste 33 Oeste 0 -- -- 68
2021-02-09 07:00:00 13 13 Sudoeste 36 Sudoeste 0 -- -- 72
2021-02-09 06:00:00 13 15 Sudoeste 37 Sudoeste 0 -- -- 73
2021-02-09 05:00:00 13.2 19 Oeste 40 Oeste 0 -- -- 73
2021-02-09 04:00:00 13.4 20 Oeste 42 Sudoeste 0 -- -- 73
2021-02-09 03:00:00 13.5 20 Sudoeste 48 Oeste 0 -- -- 72
2021-02-09 02:00:00 13.6 18 Sudoeste 49 Oeste 0 -- -- 70
2021-02-09 01:00:00 13.9 15 Sudoeste 36 Oeste 0 -- -- 69
2021-02-09 00:00:00 13.8 18 Sudoeste 36 Sudoeste 0 -- -- 72
2021-02-08 23:00:00 13.7 20 Sudoeste 43 Sur 0 -- -- 70
2021-02-08 22:00:00 13.7 16 Sudoeste 42 Sudoeste 0 -- -- 68
2021-02-08 21:00:00 13.6 17 Sudoeste 42 Sur 0 -- -- 68
2021-02-08 20:00:00 14.3 20 Sudoeste 45 Oeste 0 -- -- 60
2021-02-08 19:00:00 14.8 18 Sudoeste 48 Sudoeste 0 -- -- 60
2021-02-08 18:00:00 15 23 Sudoeste 48 Oeste 0 -- -- 58
2021-02-08 17:00:00 14.9 24 Sudoeste 59 Oeste 0 -- -- 62
2021-02-08 16:00:00 15 26 Sudoeste 63 Oeste 0 -- -- 58
2021-02-08 15:00:00 15 24 Sudoeste 53 Sur 0 -- -- 61
2021-02-08 14:00:00 15.2 23 Sudoeste 57 Sudoeste 0 -- -- 62
2021-02-08 13:00:00 14.9 10 Sudoeste 49 Oeste 0.4 -- -- 62
2021-02-08 12:00:00 14 26 Sudoeste 67 Sudoeste 0 -- -- 68
2021-02-08 11:00:00 15.9 22 Oeste 74 Sudoeste 0 -- -- 50
2021-02-08 10:00:00 14.7 18 Sudoeste 45 Sudoeste 0 -- -- 58
2021-02-08 09:00:00 13 16 Sudoeste 36 Sudoeste 0 -- -- 66
2021-02-08 08:00:00 12.5 14 Sudoeste 41 Sudoeste 0 -- -- 68
2021-02-08 07:00:00 12.5 16 Sudoeste 40 Oeste 0 -- -- 72
2021-02-08 06:00:00 12.5 17 Sudoeste 39 Oeste 0 -- -- 72
2021-02-08 05:00:00 12.9 19 Sudoeste 46 Oeste 0 -- -- 71
2021-02-08 04:00:00 13.3 17 Sudoeste 35 Sudoeste 0 -- -- 72
2021-02-08 03:00:00 13.3 10 Sudoeste 35 Sudoeste 0 -- -- 70
2021-02-08 02:00:00 13.1 17 Sudoeste 36 Sudoeste 0 -- -- 64
2021-02-08 01:00:00 12.7 13 Sudoeste 21 Sudoeste 0 -- -- 41
2021-02-08 00:00:00 12 10 Sudoeste 21 Sur 0 -- -- 45
2021-02-07 23:00:00 11.7 10 Sudoeste 22 Sudoeste 0 -- -- 48
2021-02-07 22:00:00 9.6 4 Sur 12 Sur 0 -- -- 67
2021-02-07 21:00:00 8.7 8 Sur 12 Sur 0 -- -- 69
2021-02-07 20:00:00 8.4 10 Sur 14 Sur 0 -- -- 71
2021-02-07 19:00:00 8.8 10 Sur 12 Sur 0 -- -- 72
2021-02-07 18:00:00 9.8 8 Sur 12 Sur 0 -- -- 69
2021-02-07 17:00:00 12.4 7 Norte 19 Norte 0 -- -- 57
2021-02-07 16:00:00 11.7 14 Norte 22 Noroeste 0 -- -- 60
2021-02-07 15:00:00 12.8 16 Norte 23 Noroeste 0 -- -- 57
2021-02-07 14:00:00 12.3 17 Norte 24 Noroeste 0 -- -- 62
2021-02-07 13:00:00 12.4 14 Norte 24 Noroeste 0 -- -- 64
2021-02-07 12:00:00 12.2 19 Norte 27 Noroeste 0 -- -- 62
2021-02-07 11:00:00 11.9 13 Noroeste 22 Norte 0 -- -- 68
2021-02-07 10:00:00 11.7 14 Noroeste 23 Noroeste 0 -- -- 71
2021-02-07 09:00:00 11.7 8 Noroeste 24 Noroeste 0 -- -- 74
2021-02-07 08:00:00 11.6 12 Noroeste 22 Noroeste 0 -- -- 74
2021-02-07 07:00:00 11.9 10 Noroeste 21 Noroeste 0 -- -- 79
2021-02-07 06:00:00 12.2 15 Norte 21 Norte 0 -- -- 80
2021-02-07 05:00:00 12.5 12 Norte 21 Noroeste 0 -- -- 83
2021-02-07 04:00:00 12.7 13 Norte 26 Norte 0 -- -- 81
2021-02-07 03:00:00 13.5 4 Oeste 18 Sudoeste 0 -- -- 67
2021-02-07 02:00:00 13.5 7 Sudoeste 25 Sur 0 -- -- 66
2021-02-07 01:00:00 14.3 9 Sudoeste 21 Oeste 0 -- -- 64
2021-02-07 00:00:00 12.9 5 Sur 13 Sudeste 0 -- -- 67
2021-02-06 23:00:00 13.7 4 Sudoeste 26 Sur 0 -- -- 69
2021-02-06 22:00:00 14.4 14 Sudoeste 26 Sudoeste 0 -- -- 73
2021-02-06 21:00:00 14.4 7 Sudoeste 26 Sudoeste 0 -- -- 64
2021-02-06 20:00:00 15.5 9 Oeste 27 Oeste 0 -- -- 59
2021-02-06 19:00:00 16 7 Oeste 19 Oeste 0 -- -- 53
2021-02-06 18:00:00 16.5 12 Oeste 27 Sudoeste 0 -- -- 54
2021-02-06 17:00:00 16.8 14 Sudoeste 35 Sudoeste 0 -- -- 59
2021-02-06 16:00:00 17.3 19 Oeste 37 Oeste 0 -- -- 53
2021-02-06 15:00:00 17.4 18 Sudoeste 39 Oeste 0 -- -- 57
2021-02-06 14:00:00 18.5 13 Oeste 36 Oeste 0 -- -- 45
2021-02-06 13:00:00 19.5 13 Oeste 33 Sudoeste 0 -- -- 38
2021-02-06 12:00:00 18.3 17 Oeste 29 Oeste 0 -- -- 47
2021-02-06 11:00:00 18.2 10 Oeste 34 Oeste 0 -- -- 51
2021-02-06 10:00:00 19.2 13 Oeste 35 Sudoeste 0 -- -- 45
2021-02-06 09:00:00 21 10 Sudeste 52 Sudeste 0 -- -- 45
2021-02-06 08:00:00 21.3 32 Sudeste 59 Sudeste 0 -- -- 34
2021-02-06 07:00:00 21.7 29 Sudeste 70 Sudeste 0 -- -- 34
2021-02-06 06:00:00 21.8 32 Sudeste 85 Sudeste 0 -- -- 33
2021-02-06 05:00:00 21.9 33 Sudeste 72 Sudeste 0 -- -- 33
2021-02-06 04:00:00 22.2 37 Sudeste 77 Sur 0 -- -- 30
2021-02-06 03:00:00 23.5 28 Sudeste 70 Sudeste 0 -- -- 24
2021-02-06 02:00:00 24.1 30 Sudeste 62 Sur 0 -- -- 23
2021-02-06 01:00:00 23.7 26 Sur 59 Sur 0 -- -- 26
2021-02-06 00:00:00 22.6 23 Sur 61 Sudeste 0 -- -- 31
2021-02-05 23:00:00 22 24 Sudeste 68 Sudeste 0 -- -- 33
2021-02-05 22:00:00 21.6 27 Sudeste 61 Sudeste 0 -- -- 33
2021-02-05 21:00:00 20.8 36 Sudeste 63 Sudeste 0 -- -- 36
2021-02-05 20:00:00 21.2 28 Sudeste 55 Este 0 -- -- 33
2021-02-05 19:00:00 20.4 23 Sudeste 49 Sudeste 0 -- -- 37
2021-02-05 18:00:00 20.4 19 Sudeste 45 Sudeste 0 -- -- 35
2021-02-05 17:00:00 21.8 18 Sudeste 42 Sudeste 0 -- -- 29
2021-02-05 16:00:00 20.6 3 Este 30 Sudoeste 0 -- -- 44
2021-02-05 15:00:00 23.4 12 Sur 34 Este 0 -- -- 29
2021-02-05 14:00:00 22.5 17 Sur 34 Sudoeste 0 -- -- 33
2021-02-05 13:00:00 21.1 12 Sudeste 26 Sur 0 -- -- 46
2021-02-05 12:00:00 17.8 4 Sudoeste 19 Este 0 -- -- 72
2021-02-05 11:00:00 13.9 3 Noroeste 17 Oeste 0 -- -- 91
2021-02-05 10:00:00 13.2 3 Oeste 8 Sur 0 -- -- 92
2021-02-05 09:00:00 11.7 3 Sur 10 Sur 0 -- -- 94
2021-02-05 08:00:00 12 4 Sudoeste 25 Oeste 0 -- -- 94
2021-02-05 07:00:00 11.7 5 Sudoeste 13 Sudoeste 0 -- -- 93
2021-02-05 06:00:00 12 3 Sudoeste 15 Sudoeste 0 -- -- 93
2021-02-05 05:00:00 11.5 4 Oeste 14 Sudoeste 0 -- -- 94
2021-02-05 04:00:00 10.5 4 Sudeste 12 Sudeste 0 -- -- 95
2021-02-05 03:00:00 10.4 6 Sudoeste 15 Sudoeste 0 -- -- 95
2021-02-05 02:00:00 11 6 Sudoeste 15 Nordeste 0 -- -- 95
2021-02-05 01:00:00 11.1 4 Nordeste 21 Norte 0 -- -- 95
2021-02-05 00:00:00 11.5 6 Nordeste 10 Norte 0 -- -- 95
2021-02-04 23:00:00 11.6 8 Nordeste 13 Nordeste 0 -- -- 94
2021-02-04 22:00:00 11.8 0 Calma 8 Norte 0 -- -- 92
2021-02-04 21:00:00 11.7 0 Calma 9 Sudeste 0 -- -- 91
2021-02-04 20:00:00 11.8 5 Sudoeste 9 Sur 0 -- -- 91
2021-02-04 19:00:00 11.4 2 Sur 10 Sur 0 -- -- 91
2021-02-04 18:00:00 12.7 4 Nordeste 12 Nordeste 0 -- -- 90
2021-02-04 17:00:00 13.2 4 Norte 9 Norte 0 -- -- 88
2021-02-04 16:00:00 14.4 7 Norte 12 Norte 0 -- -- 84
2021-02-04 15:00:00 13.8 8 Norte 20 Norte 0 -- -- 86
2021-02-04 14:00:00 13.7 10 Norte 17 Nordeste 0 -- -- 87
2021-02-04 13:00:00 14.1 4 Norte 8 Norte 0 -- -- 84
2021-02-04 12:00:00 14 4 Norte 8 Nordeste 0 -- -- 83
2021-02-04 11:00:00 14 4 Oeste 14 Oeste 0 -- -- 80
2021-02-04 10:00:00 12.7 5 Sur 10 Sur 0 -- -- 76
2021-02-04 09:00:00 11.8 3 Sudeste 10 Sur 0 -- -- 78
2021-02-04 08:00:00 11.4 5 Sudeste 10 Sudeste 0 -- -- 73
2021-02-04 07:00:00 11.3 6 Sudoeste 12 Sudoeste 0 -- -- 71
2021-02-04 06:00:00 12.4 5 Sur 10 Sur 0 -- -- 68
2021-02-04 05:00:00 13.4 8 Sudeste 14 Sudeste 0 -- -- 69
2021-02-04 04:00:00 13.2 4 Sur 10 Sudoeste 0 -- -- 68
2021-02-04 03:00:00 13.7 3 Sudeste 10 Sudeste 0 -- -- 63
2021-02-04 02:00:00 13.7 4 Este 9 Este 0 -- -- 70
2021-02-04 01:00:00 13.9 4 Sur 11 Sur 0 -- -- 63
2021-02-04 00:00:00 13.9 6 Sur 12 Este 0 -- -- 65
2021-02-03 23:00:00 16.3 3 Este 17 Sur 0 -- -- 54
2021-02-03 22:00:00 14 9 Sur 13 Sur 0 -- -- 59
2021-02-03 21:00:00 14.2 5 Sur 10 Sur 0 -- -- 58
2021-02-03 20:00:00 16.8 7 Sudoeste 24 Sur 0 -- -- 46
2021-02-03 19:00:00 17.3 13 Sudoeste 28 Sudoeste 0 -- -- 46
2021-02-03 18:00:00 16.8 10 Oeste 22 Oeste 0 -- -- 48
2021-02-03 17:00:00 17.1 13 Oeste 33 Oeste 0 -- -- 50
2021-02-03 16:00:00 17.2 22 Oeste 33 Oeste 0 -- -- 52
2021-02-03 15:00:00 17.2 21 Oeste 43 Sudoeste 0 -- -- 51
2021-02-03 14:00:00 17 20 Oeste 32 Oeste 0 -- -- 52
2021-02-03 13:00:00 17.5 15 Sudoeste 39 Sudoeste 0 -- -- 50
2021-02-03 12:00:00 16.9 18 Oeste 41 Oeste 0 -- -- 50
2021-02-03 11:00:00 16.7 23 Oeste 46 Oeste 0 -- -- 52
2021-02-03 10:00:00 16.1 18 Sudoeste 43 Oeste 0 -- -- 57
2021-02-03 09:00:00 15.7 12 Sudoeste 31 Sudoeste 0 -- -- 56
2021-02-03 08:00:00 15.5 6 Sudoeste 36 Oeste 0 -- -- 57
2021-02-03 07:00:00 16.1 17 Sudoeste 39 Oeste 0 -- -- 57
2021-02-03 06:00:00 16.7 19 Oeste 39 Sudoeste 0 -- -- 53
2021-02-03 05:00:00 17 19 Oeste 40 Sur 0 -- -- 52
2021-02-03 04:00:00 17.2 10 Sudoeste 26 Sudoeste 0 -- -- 54
2021-02-03 03:00:00 15.3 4 Sur 14 Sudeste 0 -- -- 61
2021-02-03 02:00:00 17.2 5 Este 20 Oeste 0 -- -- 56
2021-02-03 01:00:00 18.3 7 Sudoeste 22 Sudoeste 0 -- -- 48
2021-02-03 00:00:00 18 7 Sudoeste 31 Sur 0 -- -- 49
2021-02-02 23:00:00 18.3 14 Sudoeste 29 Sur 0 -- -- 48
2021-02-02 22:00:00 17 10 Sudoeste 19 Sudoeste 0 -- -- 50
2021-02-02 21:00:00 14 5 Sudeste 13 Sur 0 -- -- 65
2021-02-02 20:00:00 13.9 11 Sur 17 Sudoeste 0 -- -- 66
2021-02-02 19:00:00 15.1 8 Sur 15 Sudoeste 0 -- -- 61
2021-02-02 18:00:00 14.5 3 Sur 11 Sur 0 -- -- 70
2021-02-02 17:00:00 17.6 3 Sur 19 Oeste 0 -- -- 64
2021-02-02 16:00:00 16.1 14 Oeste 24 Oeste 0 -- -- 69
2021-02-02 15:00:00 15.9 16 Oeste 25 Oeste 0 -- -- 72
2021-02-02 14:00:00 15.9 20 Oeste 31 Oeste 0 -- -- 73
2021-02-02 13:00:00 16 14 Oeste 22 Oeste 0 -- -- 74
2021-02-02 12:00:00 17.4 3 Sudeste 19 Oeste 0 -- -- 64
2021-02-02 11:00:00 17.3 4 Sudoeste 7 Sur 0 -- -- 58
2021-02-02 10:00:00 16.7 3 Sudeste 17 Oeste 0 -- -- 59
2021-02-02 09:00:00 15.8 10 Sudoeste 20 Oeste 0 -- -- 61
2021-02-02 08:00:00 15.2 8 Oeste 24 Oeste 0 -- -- 63
2021-02-02 07:00:00 14.8 8 Sudoeste 27 Oeste 0 -- -- 68
2021-02-02 06:00:00 15.1 7 Este 25 Oeste 0 -- -- 65
2021-02-02 05:00:00 15.7 10 Oeste 26 Sudoeste 0 -- -- 63
2021-02-02 04:00:00 16.3 10 Sudoeste 24 Sur 0 -- -- 58
2021-02-02 03:00:00 16.4 9 Sudoeste 27 Sudoeste 0 -- -- 55
2021-02-02 02:00:00 16.8 11 Sudoeste 28 Sudoeste 0 -- -- 56
2021-02-02 01:00:00 17.2 9 Sudoeste 21 Sudoeste 0 -- -- 47
2021-02-02 00:00:00 16.3 7 Sudoeste 19 Sudoeste 0 -- -- 49
2021-02-01 23:00:00 15.4 10 Sur 17 Sur 0 -- -- 53
2021-02-01 22:00:00 17.6 7 Sudoeste 21 Sudoeste 0 -- -- 46
2021-02-01 21:00:00 18.5 13 Sudoeste 30 Sudoeste 0 -- -- 43
2021-02-01 20:00:00 18.2 7 Sudoeste 39 Sur 0 -- -- 45
2021-02-01 19:00:00 17.1 19 Sudoeste 35 Sur 0 -- -- 50
2021-02-01 18:00:00 17.2 23 Sudoeste 46 Sudoeste 0 -- -- 48
2021-02-01 17:00:00 17.1 21 Sudoeste 38 Sur 0 -- -- 48
2021-02-01 16:00:00 18.2 18 Sudoeste 37 Sur 0 -- -- 43
2021-02-01 15:00:00 17.7 13 Sudoeste 33 Sur 0 -- -- 49
2021-02-01 14:00:00 17.4 18 Sudoeste 34 Sudoeste 0 -- -- 50
2021-02-01 13:00:00 17.2 17 Sudoeste 40 Sudoeste 0 -- -- 49
2021-02-01 12:00:00 17.1 15 Sudoeste 40 Sudoeste 0 -- -- 48
2021-02-01 11:00:00 16.9 21 Sudoeste 43 Sudoeste 0 -- -- 47
2021-02-01 10:00:00 16.5 17 Sudoeste 41 Sudoeste 0 -- -- 52
2021-02-01 09:00:00 16 18 Sudoeste 39 Sur 0 -- -- 56
2021-02-01 08:00:00 15.9 17 Sudoeste 54 Sudoeste 0 -- -- 59
2021-02-01 07:00:00 15.5 28 Sudoeste 51 Sur 0 -- -- 68
2021-02-01 06:00:00 15.9 31 Sudoeste 54 Sudoeste 0 -- -- 64
2021-02-01 05:00:00 16.3 32 Sudoeste 58 Sudoeste 0 -- -- 59
2021-02-01 04:00:00 16.2 31 Sudoeste 62 Sudoeste 0 -- -- 63
2021-02-01 03:00:00 15.5 19 Sudoeste 41 Sudoeste 0 -- -- 73
2021-02-01 02:00:00 15.8 22 Sudoeste 56 Sudoeste 0 -- -- 71
2021-02-01 01:00:00 15.9 34 Sudoeste 69 Sur 0 -- -- 70
2021-02-01 00:00:00 15.5 25 Sudoeste 55 Sudoeste 0 -- -- 71
2021-01-31 23:00:00 15.5 36 Sudoeste 57 Sur 0 -- -- 70
2021-01-31 22:00:00 15.4 40 Sudoeste 62 Sudoeste 0 -- -- 70
2021-01-31 21:00:00 14.7 25 Sudoeste 50 Sur 0 -- -- 74
2021-01-31 20:00:00 14.6 18 Sudoeste 47 Sudoeste 0 -- -- 74
2021-01-31 19:00:00 14.3 23 Sudoeste 44 Sudoeste 0 -- -- 75
2021-01-31 18:00:00 14.6 22 Sudoeste 44 Sur 0 -- -- 70
2021-01-31 17:00:00 15.2 14 Sudoeste 42 Sudoeste 0 -- -- 64
2021-01-31 16:00:00 15 15 Sudoeste 41 Sudoeste 0 -- -- 62
2021-01-31 15:00:00 15.5 14 Sudoeste 31 Sur 0 -- -- 60
2021-01-31 14:00:00 14.8 14 Sudoeste 34 Sudoeste 0 -- -- 68
2021-01-31 13:00:00 14.4 16 Oeste 40 Oeste 0 -- -- 71
2021-01-31 12:00:00 15.4 12 Sudoeste 33 Sudoeste 0 -- -- 63
2021-01-31 11:00:00 14.5 17 Oeste 32 Oeste 0 -- -- 67
2021-01-31 10:00:00 13.9 15 Sudoeste 35 Oeste 0 -- -- 71
2021-01-31 09:00:00 13.6 14 Sudoeste 35 Oeste 0 -- -- 69
2021-01-31 08:00:00 13.5 17 Oeste 36 Oeste 0 -- -- 71
2021-01-31 07:00:00 13.8 22 Oeste 38 Oeste 0 -- -- 66
2021-01-31 06:00:00 13.6 13 Sudoeste 32 Sudoeste 0 -- -- 71
2021-01-31 05:00:00 13.8 17 Oeste 39 Oeste 0 -- -- 69
2021-01-31 04:00:00 13.9 18 Oeste 34 Noroeste 0 -- -- 68
2021-01-31 03:00:00 13.5 10 Sudoeste 24 Sudoeste 0 -- -- 74
2021-01-31 02:00:00 13.3 11 Sudoeste 21 Sudoeste 0 -- -- 69
2021-01-31 01:00:00 13.6 11 Noroeste 22 Noroeste 0 -- -- 70
2021-01-31 00:00:00 14 11 Oeste 30 Oeste 0 -- -- 69
2021-01-30 23:00:00 14.5 21 Noroeste 42 Oeste 0 -- -- 68
2021-01-30 22:00:00 15 20 Oeste 37 Sudoeste 0 -- -- 62
2021-01-30 21:00:00 15.3 17 Sudoeste 53 Sudoeste 0 -- -- 56
2021-01-30 20:00:00 15.7 30 Sudoeste 50 Sur 0 -- -- 56
2021-01-30 19:00:00 15.1 19 Sudoeste 44 Sur 0 -- -- 68
2021-01-30 18:00:00 15.9 17 Sudoeste 37 Sudoeste 0 -- -- 58
2021-01-30 17:00:00 16.1 10 Sudoeste 29 Oeste 0 -- -- 63
2021-01-30 16:00:00 15.8 14 Sudoeste 45 Sur 0 -- -- 72
2021-01-30 15:00:00 16.2 20 Sudoeste 38 Sudoeste 0 -- -- 65
2021-01-30 14:00:00 16.1 24 Sudoeste 54 Sur 0 -- -- 67
2021-01-30 13:00:00 15.9 20 Sudoeste 49 Oeste 0 -- -- 69
2021-01-30 12:00:00 16.3 15 Sudoeste 65 Sudoeste 0 -- -- 65
2021-01-30 11:00:00 17.1 25 Sudoeste 73 Oeste 0 -- -- 61
2021-01-30 10:00:00 19.8 27 Sudoeste 59 Sudoeste 0 -- -- 49
2021-01-30 09:00:00 18.9 19 Sudoeste 41 Oeste 0 -- -- 51
2021-01-30 08:00:00 18.3 18 Sudoeste 41 Oeste 0 -- -- 53
2021-01-30 07:00:00 18.6 14 Sudoeste 42 Sudoeste 0 -- -- 52
2021-01-30 06:00:00 18.2 18 Sudoeste 39 Sur 0 -- -- 55
2021-01-30 05:00:00 16 10 Sudoeste 23 Sudoeste 0 -- -- 59
2021-01-30 04:00:00 14.7 5 Sudoeste 10 Sudeste 0 -- -- 66
2021-01-30 03:00:00 14.7 5 Sur 13 Sur 0 -- -- 66
2021-01-30 02:00:00 16.2 3 Sur 13 Sur 0 -- -- 59
2021-01-30 01:00:00 15.7 4 Sur 12 Sur 0 -- -- 60
2021-01-30 00:00:00 15.7 3 Sur 9 Sur 0 -- -- 61